ADDS METAR Data INFO
IDs: Format: Raw Decoded Include TAF

Data at: 2026 UTC 16 Dec 2017

KIML 161953Z AUTO 05019KT 10SM CLR 10/M02 A2980 RMK AO2 PK WND 04027/1920 SLP106 T01001022
KIML 161853Z AUTO 05020KT 10SM CLR 09/M03 A2980 RMK AO2 PK WND 04027/1806 SLP106 T00941033
KIML 161753Z AUTO 05017G25KT 10SM CLR 08/M06 A2982 RMK AO2 SLP115 T00831056 10089 21050 50009
KIML 161653Z AUTO 04014KT 10SM CLR 06/M07 A2982 RMK AO2 SLP114 T00611072
KIML 161553Z AUTO 36011KT 10SM CLR 03/M09 A2981 RMK AO2 SLP112 T00331089
KIML 161453Z AUTO 34008KT 10SM CLR 01/M09 A2979 RMK AO2 SLP104 T00111094 51013
KIML 161353Z AUTO 32005KT 10SM CLR M03/M09 A2978 RMK AO2 SLP106 T10281094
KIML 161253Z AUTO 32003KT 10SM CLR M01/M10 A2976 RMK AO2 SLP096 T10111100
KIML 161153Z AUTO 26004KT 10SM CLR M03/M10 A2975 RMK AO2 SLP091 T10331100 11006 21044 55003
KIML 161053Z AUTO 28006KT 10SM CLR M02/M11 A2975 RMK AO2 SLP083 T10221106
KIML 160953Z AUTO 23004KT 10SM CLR M03/M11 A2976 RMK AO2 SLP086 T10331106
KIML 160853Z AUTO 00000KT 10SM CLR M02/M11 A2976 RMK AO2 SLP082 T10171106 55003
KIML 160753Z AUTO 00000KT 10SM CLR M04/M11 A2974 RMK AO2 SLP079 T10391111
KIML 160653Z AUTO 28006KT 10SM CLR M03/M12 A2976 RMK AO2 SLP089 T10281122 401561089
KIML 160553Z AUTO VRB03KT 10SM CLR M03/M13 A2977 RMK AO2 SLP095 T10281128 10072 21028 56008
KIML 160453Z AUTO 26006KT 10SM CLR 01/M13 A2977 RMK AO2 SLP099 T00061128
KIML 160353Z AUTO 25006KT 10SM CLR 01/M13 A2978 RMK AO2 SLP110 T00061128
KIML 160253Z AUTO 25008KT 10SM CLR 04/M13 A2979 RMK AO2 SLP114 T00391128 58006
KIML 160153Z AUTO 25007KT 10SM CLR 04/M12 A2980 RMK AO2 SLP118 T00391122
KIML 160053Z AUTO 26008KT 10SM CLR 04/M12 A2981 RMK AO2 SLP122 T00441117
KIML 152353Z AUTO 23006KT 10SM CLR 07/M12 A2981 RMK AO2 SLP119 T00721117 10156 20072 58013
KIML 152253Z AUTO 25006KT 10SM CLR 12/M12 A2983 RMK AO2 SLP118 T01221117
KIML 152153Z AUTO 27010KT 10SM CLR 14/M12 A2985 RMK AO2 SLP123 T01441117
KIML 152053Z AUTO 28007KT 10SM CLR 16/M12 A2986 RMK AO2 SLP125 T01561117 56039
KIML 151953Z AUTO 29016G19KT 10SM CLR 14/M12 A2989 RMK AO2 SLP134 T01441122
KIML 151853Z AUTO 30013G19KT 10SM CLR 13/M11 A2993 RMK AO2 SLP151 T01281106
KIML 151753Z AUTO 25010KT 10SM CLR 09/M09 A2998 RMK AO2 SLP173 T00891089 10089 21078 58007
KIML 151653Z AUTO 25013KT 10SM CLR 03/M08 A3001 RMK AO2 SLP188 T00331078
KIML 151553Z AUTO 26012KT 10SM CLR M02/M07 A3000 RMK AO2 SLP189 T10171072
KIML 151453Z AUTO 26011KT 10SM CLR M06/M09 A3001 RMK AO2 SLP194 T10561094 56019
KIML 151353Z AUTO 26010KT 10SM CLR M07/M10 A3001 RMK AO2 SLP196 T10721100
KIML 151253Z AUTO 27012KT 10SM CLR M07/M10 A3004 RMK AO2 SLP205 T10671100
KIML 151153Z AUTO 27010KT 10SM CLR M08/M10 A3007 RMK AO2 SLP215 T10781100 11061 21089 58026
KIML 151053Z AUTO 26010KT 10SM CLR M08/M10 A3010 RMK AO2 SLP226 T10781100
KIML 150953Z AUTO 25008KT 10SM CLR M08/M10 A3014 RMK AO2 SLP240 T10831100
KIML 150853Z AUTO 25009KT 10SM CLR M09/M11 A3015 RMK AO2 SLP244 T10891106 56019